sensor_id;sensor_type;location;lat;lon;timestamp;temperature;humidity
50570;DHT22;36525;49.398;7.614;2023-04-10T00:00:35;4.10;99.90
50570;DHT22;36525;49.398;7.614;2023-04-10T00:03:05;4.10;99.90
50570;DHT22;36525;49.398;7.614;2023-04-10T00:05:32;4.10;99.90
50570;DHT22;36525;49.398;7.614;2023-04-10T00:07:59;4.10;99.90
50570;DHT22;36525;49.398;7.614;2023-04-10T00:10:28;4.00;99.90
50570;DHT22;36525;49.398;7.614;2023-04-10T00:12:57;4.00;99.90
50570;DHT22;36525;49.398;7.614;2023-04-10T00:15:26;4.00;99.90
50570;DHT22;36525;49.398;7.614;2023-04-10T00:17:54;3.90;99.90
50570;DHT22;36525;49.398;7.614;2023-04-10T00:20:22;3.90;99.90
50570;DHT22;36525;49.398;7.614;2023-04-10T00:22:51;3.80;99.90
50570;DHT22;36525;49.398;7.614;2023-04-10T00:25:19;3.70;99.90
50570;DHT22;36525;49.398;7.614;2023-04-10T00:27:48;3.40;99.90
50570;DHT22;36525;49.398;7.614;2023-04-10T00:30:15;3.40;99.90
50570;DHT22;36525;49.398;7.614;2023-04-10T00:32:43;3.50;99.90
50570;DHT22;36525;49.398;7.614;2023-04-10T00:35:10;3.60;99.90
50570;DHT22;36525;49.398;7.614;2023-04-10T00:37:37;3.50;99.90
50570;DHT22;36525;49.398;7.614;2023-04-10T00:40:04;3.50;99.90
50570;DHT22;36525;49.398;7.614;2023-04-10T00:42:32;3.60;99.90
50570;DHT22;36525;49.398;7.614;2023-04-10T00:44:59;3.60;99.90
50570;DHT22;36525;49.398;7.614;2023-04-10T00:47:27;3.60;99.90
50570;DHT22;36525;49.398;7.614;2023-04-10T00:49:54;3.60;99.90
50570;DHT22;36525;49.398;7.614;2023-04-10T00:52:22;3.50;99.90
50570;DHT22;36525;49.398;7.614;2023-04-10T00:54:51;3.50;99.90
50570;DHT22;36525;49.398;7.614;2023-04-10T00:57:18;3.60;99.90
50570;DHT22;36525;49.398;7.614;2023-04-10T00:59:46;3.50;99.90
50570;DHT22;36525;49.398;7.614;2023-04-10T01:02:14;3.50;99.90
50570;DHT22;36525;49.398;7.614;2023-04-10T01:04:41;3.50;99.90
50570;DHT22;36525;49.398;7.614;2023-04-10T01:07:20;3.40;99.90
50570;DHT22;36525;49.398;7.614;2023-04-10T01:10:09;3.30;99.90
50570;DHT22;36525;49.398;7.614;2023-04-10T01:13:14;3.30;99.90
50570;DHT22;36525;49.398;7.614;2023-04-10T01:15:56;3.20;99.90
50570;DHT22;36525;49.398;7.614;2023-04-10T01:18:45;3.20;99.90
50570;DHT22;36525;49.398;7.614;2023-04-10T01:21:23;3.20;99.90
50570;DHT22;36525;49.398;7.614;2023-04-10T01:26:38;3.10;99.90
50570;DHT22;36525;49.398;7.614;2023-04-10T01:29:13;3.10;99.90
50570;DHT22;36525;49.398;7.614;2023-04-10T01:31:53;3.20;99.90
50570;DHT22;36525;49.398;7.614;2023-04-10T01:34:35;3.20;99.90
50570;DHT22;36525;49.398;7.614;2023-04-10T01:37:08;3.20;99.90
50570;DHT22;36525;49.398;7.614;2023-04-10T01:39:40;3.30;99.90
50570;DHT22;36525;49.398;7.614;2023-04-10T01:42:10;3.40;99.90
50570;DHT22;36525;49.398;7.614;2023-04-10T01:44:41;3.40;99.90
50570;DHT22;36525;49.398;7.614;2023-04-10T01:47:14;3.50;99.90
50570;DHT22;36525;49.398;7.614;2023-04-10T01:49:45;3.50;99.90
50570;DHT22;36525;49.398;7.614;2023-04-10T01:52:14;3.50;99.90
50570;DHT22;36525;49.398;7.614;2023-04-10T01:54:41;3.30;99.90
50570;DHT22;36525;49.398;7.614;2023-04-10T01:57:11;3.30;99.90
50570;DHT22;36525;49.398;7.614;2023-04-10T01:59:41;3.40;99.90
50570;DHT22;36525;49.398;7.614;2023-04-10T02:02:08;3.40;99.90
50570;DHT22;36525;49.398;7.614;2023-04-10T02:04:37;3.30;99.90
50570;DHT22;36525;49.398;7.614;2023-04-10T02:07:16;3.30;99.90
50570;DHT22;36525;49.398;7.614;2023-04-10T02:09:53;3.20;99.90
50570;DHT22;36525;49.398;7.614;2023-04-10T02:12:32;3.20;99.90
50570;DHT22;36525;49.398;7.614;2023-04-10T02:15:03;3.20;99.90
50570;DHT22;36525;49.398;7.614;2023-04-10T02:17:33;3.20;99.90
50570;DHT22;36525;49.398;7.614;2023-04-10T02:20:02;3.20;99.90
50570;DHT22;36525;49.398;7.614;2023-04-10T02:22:31;3.10;99.90
50570;DHT22;36525;49.398;7.614;2023-04-10T02:24:59;3.10;99.90
50570;DHT22;36525;49.398;7.614;2023-04-10T02:27:31;3.10;99.90
50570;DHT22;36525;49.398;7.614;2023-04-10T02:30:01;3.20;99.90
50570;DHT22;36525;49.398;7.614;2023-04-10T02:32:30;3.10;99.90
50570;DHT22;36525;49.398;7.614;2023-04-10T02:34:58;3.00;99.90
50570;DHT22;36525;49.398;7.614;2023-04-10T02:37:25;2.90;99.90
50570;DHT22;36525;49.398;7.614;2023-04-10T02:39:53;2.90;99.90
50570;DHT22;36525;49.398;7.614;2023-04-10T02:42:23;2.70;99.90
50570;DHT22;36525;49.398;7.614;2023-04-10T02:44:49;2.70;99.90
50570;DHT22;36525;49.398;7.614;2023-04-10T02:47:16;2.50;99.90
50570;DHT22;36525;49.398;7.614;2023-04-10T02:49:44;2.40;99.90
50570;DHT22;36525;49.398;7.614;2023-04-10T02:52:11;2.30;99.90
50570;DHT22;36525;49.398;7.614;2023-04-10T02:54:38;2.40;99.90
50570;DHT22;36525;49.398;7.614;2023-04-10T02:57:06;2.40;99.90
50570;DHT22;36525;49.398;7.614;2023-04-10T02:59:33;2.50;99.90
50570;DHT22;36525;49.398;7.614;2023-04-10T03:02:00;2.60;99.90
50570;DHT22;36525;49.398;7.614;2023-04-10T03:04:30;2.60;99.90
50570;DHT22;36525;49.398;7.614;2023-04-10T03:06:57;2.70;99.90
50570;DHT22;36525;49.398;7.614;2023-04-10T03:09:25;2.80;99.90
50570;DHT22;36525;49.398;7.614;2023-04-10T03:11:52;2.70;99.90
50570;DHT22;36525;49.398;7.614;2023-04-10T03:14:19;2.60;99.90
50570;DHT22;36525;49.398;7.614;2023-04-10T03:16:46;2.60;99.90
50570;DHT22;36525;49.398;7.614;2023-04-10T03:19:13;2.50;99.90
50570;DHT22;36525;49.398;7.614;2023-04-10T03:21:40;2.40;99.90
50570;DHT22;36525;49.398;7.614;2023-04-10T03:24:07;2.30;99.90
50570;DHT22;36525;49.398;7.614;2023-04-10T03:26:34;2.20;99.90
50570;DHT22;36525;49.398;7.614;2023-04-10T03:29:01;2.20;99.90
50570;DHT22;36525;49.398;7.614;2023-04-10T03:31:29;2.20;99.90
50570;DHT22;36525;49.398;7.614;2023-04-10T03:33:56;2.30;99.90
50570;DHT22;36525;49.398;7.614;2023-04-10T03:36:24;2.40;99.90
50570;DHT22;36525;49.398;7.614;2023-04-10T03:38:51;2.40;99.90
50570;DHT22;36525;49.398;7.614;2023-04-10T03:41:18;2.50;99.90
50570;DHT22;36525;49.398;7.614;2023-04-10T03:43:45;2.50;99.90
50570;DHT22;36525;49.398;7.614;2023-04-10T03:46:12;2.50;99.90
50570;DHT22;36525;49.398;7.614;2023-04-10T03:48:40;2.40;99.90
50570;DHT22;36525;49.398;7.614;2023-04-10T03:51:07;2.40;99.90
50570;DHT22;36525;49.398;7.614;2023-04-10T03:53:34;2.40;99.90
50570;DHT22;36525;49.398;7.614;2023-04-10T03:56:02;2.40;99.90
50570;DHT22;36525;49.398;7.614;2023-04-10T03:58:29;2.50;99.90
50570;DHT22;36525;49.398;7.614;2023-04-10T04:00:56;2.40;99.90
50570;DHT22;36525;49.398;7.614;2023-04-10T04:03:24;2.30;99.90
50570;DHT22;36525;49.398;7.614;2023-04-10T04:05:51;2.30;99.90
50570;DHT22;36525;49.398;7.614;2023-04-10T04:08:18;2.40;99.90
50570;DHT22;36525;49.398;7.614;2023-04-10T04:10:45;2.40;99.90
50570;DHT22;36525;49.398;7.614;2023-04-10T04:13:13;2.30;99.90
50570;DHT22;36525;49.398;7.614;2023-04-10T04:15:40;2.40;99.90
50570;DHT22;36525;49.398;7.614;2023-04-10T04:18:08;2.40;99.90
50570;DHT22;36525;49.398;7.614;2023-04-10T04:20:36;2.40;99.90
50570;DHT22;36525;49.398;7.614;2023-04-10T04:23:03;2.40;99.90
50570;DHT22;36525;49.398;7.614;2023-04-10T04:25:30;2.20;99.90
50570;DHT22;36525;49.398;7.614;2023-04-10T04:27:57;2.10;99.90
50570;DHT22;36525;49.398;7.614;2023-04-10T04:30:24;2.00;99.90
50570;DHT22;36525;49.398;7.614;2023-04-10T04:32:51;2.10;99.90
50570;DHT22;36525;49.398;7.614;2023-04-10T04:35:18;2.10;99.90
50570;DHT22;36525;49.398;7.614;2023-04-10T04:37:45;2.20;99.90
50570;DHT22;36525;49.398;7.614;2023-04-10T04:40:12;2.10;99.90
50570;DHT22;36525;49.398;7.614;2023-04-10T04:42:39;2.10;99.90
50570;DHT22;36525;49.398;7.614;2023-04-10T04:45:07;2.20;99.90
50570;DHT22;36525;49.398;7.614;2023-04-10T04:47:34;2.10;99.90
50570;DHT22;36525;49.398;7.614;2023-04-10T04:50:01;2.10;99.90
50570;DHT22;36525;49.398;7.614;2023-04-10T04:52:28;2.10;99.90
50570;DHT22;36525;49.398;7.614;2023-04-10T04:54:55;2.10;99.90
50570;DHT22;36525;49.398;7.614;2023-04-10T04:57:23;2.10;99.90
50570;DHT22;36525;49.398;7.614;2023-04-10T04:59:50;2.10;99.90
50570;DHT22;36525;49.398;7.614;2023-04-10T05:02:20;2.10;99.90
50570;DHT22;36525;49.398;7.614;2023-04-10T05:04:48;2.10;99.90
50570;DHT22;36525;49.398;7.614;2023-04-10T05:07:16;2.00;99.90
50570;DHT22;36525;49.398;7.614;2023-04-10T05:09:43;2.00;99.90
50570;DHT22;36525;49.398;7.614;2023-04-10T05:12:10;2.00;99.90
50570;DHT22;36525;49.398;7.614;2023-04-10T05:14:37;2.00;99.90
50570;DHT22;36525;49.398;7.614;2023-04-10T05:17:04;2.10;99.90
50570;DHT22;36525;49.398;7.614;2023-04-10T05:19:31;2.00;99.90
50570;DHT22;36525;49.398;7.614;2023-04-10T05:22:01;2.00;99.90
50570;DHT22;36525;49.398;7.614;2023-04-10T05:24:30;2.00;99.90
50570;DHT22;36525;49.398;7.614;2023-04-10T05:26:57;2.00;99.90
50570;DHT22;36525;49.398;7.614;2023-04-10T05:29:24;2.00;99.90
50570;DHT22;36525;49.398;7.614;2023-04-10T05:31:52;2.10;99.90
50570;DHT22;36525;49.398;7.614;2023-04-10T05:34:22;2.00;99.90
50570;DHT22;36525;49.398;7.614;2023-04-10T05:36:49;2.00;99.90
50570;DHT22;36525;49.398;7.614;2023-04-10T05:39:16;2.10;99.90
50570;DHT22;36525;49.398;7.614;2023-04-10T05:41:44;2.10;99.90
50570;DHT22;36525;49.398;7.614;2023-04-10T05:44:10;2.20;99.90
50570;DHT22;36525;49.398;7.614;2023-04-10T05:46:38;2.30;99.90
50570;DHT22;36525;49.398;7.614;2023-04-10T05:49:05;2.30;99.90
50570;DHT22;36525;49.398;7.614;2023-04-10T05:51:32;2.40;99.90
50570;DHT22;36525;49.398;7.614;2023-04-10T05:53:59;2.40;99.90
50570;DHT22;36525;49.398;7.614;2023-04-10T05:56:26;2.50;99.90
50570;DHT22;36525;49.398;7.614;2023-04-10T05:58:56;2.60;99.90
50570;DHT22;36525;49.398;7.614;2023-04-10T06:01:23;2.60;99.90
50570;DHT22;36525;49.398;7.614;2023-04-10T06:03:50;2.70;99.90
50570;DHT22;36525;49.398;7.614;2023-04-10T06:06:20;2.80;99.90
50570;DHT22;36525;49.398;7.614;2023-04-10T06:08:48;2.70;99.90
50570;DHT22;36525;49.398;7.614;2023-04-10T06:11:15;2.80;99.90
50570;DHT22;36525;49.398;7.614;2023-04-10T06:13:42;2.90;99.90
50570;DHT22;36525;49.398;7.614;2023-04-10T06:16:09;3.00;99.90
50570;DHT22;36525;49.398;7.614;2023-04-10T06:18:37;3.10;99.90
50570;DHT22;36525;49.398;7.614;2023-04-10T06:21:04;3.20;99.90
50570;DHT22;36525;49.398;7.614;2023-04-10T06:23:31;3.30;99.90
50570;DHT22;36525;49.398;7.614;2023-04-10T06:25:59;3.40;99.90
50570;DHT22;36525;49.398;7.614;2023-04-10T06:28:27;3.50;99.90
50570;DHT22;36525;49.398;7.614;2023-04-10T06:30:54;3.60;99.90
50570;DHT22;36525;49.398;7.614;2023-04-10T06:33:22;3.80;99.90
50570;DHT22;36525;49.398;7.614;2023-04-10T06:35:51;4.10;99.90
50570;DHT22;36525;49.398;7.614;2023-04-10T06:38:18;4.40;99.90
50570;DHT22;36525;49.398;7.614;2023-04-10T06:40:46;4.70;99.90
50570;DHT22;36525;49.398;7.614;2023-04-10T06:43:13;4.90;99.90
50570;DHT22;36525;49.398;7.614;2023-04-10T06:45:40;5.20;99.90
50570;DHT22;36525;49.398;7.614;2023-04-10T06:48:07;5.30;99.90
50570;DHT22;36525;49.398;7.614;2023-04-10T06:50:34;5.50;99.90
50570;DHT22;36525;49.398;7.614;2023-04-10T06:53:02;5.70;99.90
50570;DHT22;36525;49.398;7.614;2023-04-10T06:55:29;5.90;99.90
50570;DHT22;36525;49.398;7.614;2023-04-10T06:57:57;6.20;99.90
50570;DHT22;36525;49.398;7.614;2023-04-10T07:00:24;6.40;99.90
50570;DHT22;36525;49.398;7.614;2023-04-10T07:02:51;6.60;99.90
50570;DHT22;36525;49.398;7.614;2023-04-10T07:05:18;6.90;99.90
50570;DHT22;36525;49.398;7.614;2023-04-10T07:07:46;7.10;99.90
50570;DHT22;36525;49.398;7.614;2023-04-10T07:10:16;7.30;99.90
50570;DHT22;36525;49.398;7.614;2023-04-10T07:12:43;7.50;99.90
50570;DHT22;36525;49.398;7.614;2023-04-10T07:15:10;7.70;99.90
50570;DHT22;36525;49.398;7.614;2023-04-10T07:17:38;7.90;99.90
50570;DHT22;36525;49.398;7.614;2023-04-10T07:20:06;8.00;99.90
50570;DHT22;36525;49.398;7.614;2023-04-10T07:22:33;8.20;99.90
50570;DHT22;36525;49.398;7.614;2023-04-10T07:25:00;8.30;99.90
50570;DHT22;36525;49.398;7.614;2023-04-10T07:27:27;8.50;99.90
50570;DHT22;36525;49.398;7.614;2023-04-10T07:29:55;8.70;99.90
50570;DHT22;36525;49.398;7.614;2023-04-10T07:32:22;8.90;99.90
50570;DHT22;36525;49.398;7.614;2023-04-10T07:34:50;9.00;99.90
50570;DHT22;36525;49.398;7.614;2023-04-10T07:37:17;9.30;99.90
50570;DHT22;36525;49.398;7.614;2023-04-10T07:39:44;9.50;99.90
50570;DHT22;36525;49.398;7.614;2023-04-10T07:42:11;9.60;99.90
50570;DHT22;36525;49.398;7.614;2023-04-10T07:44:38;9.80;99.90
50570;DHT22;36525;49.398;7.614;2023-04-10T07:47:05;10.00;99.90
50570;DHT22;36525;49.398;7.614;2023-04-10T07:49:33;10.10;99.90
50570;DHT22;36525;49.398;7.614;2023-04-10T07:51:59;10.30;99.90
50570;DHT22;36525;49.398;7.614;2023-04-10T07:54:28;10.40;99.90
50570;DHT22;36525;49.398;7.614;2023-04-10T07:57:00;10.60;99.90
50570;DHT22;36525;49.398;7.614;2023-04-10T07:59:27;10.80;99.90
50570;DHT22;36525;49.398;7.614;2023-04-10T08:01:54;11.00;99.90
50570;DHT22;36525;49.398;7.614;2023-04-10T08:04:22;11.20;99.90
50570;DHT22;36525;49.398;7.614;2023-04-10T08:06:49;11.50;99.90
50570;DHT22;36525;49.398;7.614;2023-04-10T08:09:18;11.60;99.90
50570;DHT22;36525;49.398;7.614;2023-04-10T08:11:46;11.70;99.90
50570;DHT22;36525;49.398;7.614;2023-04-10T08:14:13;11.90;99.90
50570;DHT22;36525;49.398;7.614;2023-04-10T08:16:44;12.30;99.90
50570;DHT22;36525;49.398;7.614;2023-04-10T08:19:11;12.60;98.30
50570;DHT22;36525;49.398;7.614;2023-04-10T08:21:38;13.10;98.50
50570;DHT22;36525;49.398;7.614;2023-04-10T08:24:05;13.80;96.40
50570;DHT22;36525;49.398;7.614;2023-04-10T08:26:32;14.10;95.60
50570;DHT22;36525;49.398;7.614;2023-04-10T08:28:59;14.90;94.70
50570;DHT22;36525;49.398;7.614;2023-04-10T08:31:27;15.40;93.00
50570;DHT22;36525;49.398;7.614;2023-04-10T08:33:55;16.40;92.80
50570;DHT22;36525;49.398;7.614;2023-04-10T08:36:23;16.70;89.20
50570;DHT22;36525;49.398;7.614;2023-04-10T08:38:50;17.10;88.00
50570;DHT22;36525;49.398;7.614;2023-04-10T08:41:18;17.10;84.70
50570;DHT22;36525;49.398;7.614;2023-04-10T08:43:47;17.30;84.80
50570;DHT22;36525;49.398;7.614;2023-04-10T08:46:15;17.40;82.10
50570;DHT22;36525;49.398;7.614;2023-04-10T08:48:52;17.40;83.40
50570;DHT22;36525;49.398;7.614;2023-04-10T08:51:30;17.40;78.90
50570;DHT22;36525;49.398;7.614;2023-04-10T08:54:07;17.50;82.30
50570;DHT22;36525;49.398;7.614;2023-04-10T08:56:38;17.50;79.80
50570;DHT22;36525;49.398;7.614;2023-04-10T08:59:07;16.70;77.00
50570;DHT22;36525;49.398;7.614;2023-04-10T09:01:38;16.90;79.20
50570;DHT22;36525;49.398;7.614;2023-04-10T09:04:06;17.00;77.20
50570;DHT22;36525;49.398;7.614;2023-04-10T09:06:33;16.60;78.10
50570;DHT22;36525;49.398;7.614;2023-04-10T09:09:05;16.30;76.20
50570;DHT22;36525;49.398;7.614;2023-04-10T09:14:26;17.10;77.60
50570;DHT22;36525;49.398;7.614;2023-04-10T09:17:16;17.50;78.00
50570;DHT22;36525;49.398;7.614;2023-04-10T09:19:49;17.70;76.10
50570;DHT22;36525;49.398;7.614;2023-04-10T09:22:32;17.60;73.50
50570;DHT22;36525;49.398;7.614;2023-04-10T09:25:01;17.80;76.20
50570;DHT22;36525;49.398;7.614;2023-04-10T09:27:34;18.00;73.40
50570;DHT22;36525;49.398;7.614;2023-04-10T09:30:04;17.80;72.30
50570;DHT22;36525;49.398;7.614;2023-04-10T09:35:03;17.80;73.40
50570;DHT22;36525;49.398;7.614;2023-04-10T09:37:31;18.30;75.00
50570;DHT22;36525;49.398;7.614;2023-04-10T09:39:59;18.80;74.40
50570;DHT22;36525;49.398;7.614;2023-04-10T09:45:05;19.20;73.60
50570;DHT22;36525;49.398;7.614;2023-04-10T09:47:32;19.30;72.40
50570;DHT22;36525;49.398;7.614;2023-04-10T09:50:00;19.70;74.90
50570;DHT22;36525;49.398;7.614;2023-04-10T09:52:34;18.90;73.20
50570;DHT22;36525;49.398;7.614;2023-04-10T09:55:05;18.20;73.20
50570;DHT22;36525;49.398;7.614;2023-04-10T09:57:35;18.80;74.50
50570;DHT22;36525;49.398;7.614;2023-04-10T10:00:03;19.30;75.30
50570;DHT22;36525;49.398;7.614;2023-04-10T10:02:37;18.20;73.00
50570;DHT22;36525;49.398;7.614;2023-04-10T10:05:08;17.50;73.40
50570;DHT22;36525;49.398;7.614;2023-04-10T10:07:37;17.50;75.50
50570;DHT22;36525;49.398;7.614;2023-04-10T10:10:06;17.30;74.70
50570;DHT22;36525;49.398;7.614;2023-04-10T10:12:44;17.60;75.10
50570;DHT22;36525;49.398;7.614;2023-04-10T10:15:35;18.30;76.00
50570;DHT22;36525;49.398;7.614;2023-04-10T10:20:51;18.70;75.00
50570;DHT22;36525;49.398;7.614;2023-04-10T10:23:20;18.70;75.80
50570;DHT22;36525;49.398;7.614;2023-04-10T10:25:49;18.40;73.50
50570;DHT22;36525;49.398;7.614;2023-04-10T10:28:17;18.50;76.20
50570;DHT22;36525;49.398;7.614;2023-04-10T10:30:47;18.70;74.30
50570;DHT22;36525;49.398;7.614;2023-04-10T10:33:17;19.00;75.70
50570;DHT22;36525;49.398;7.614;2023-04-10T10:35:45;18.80;74.10
50570;DHT22;36525;49.398;7.614;2023-04-10T10:38:12;18.60;74.50
50570;DHT22;36525;49.398;7.614;2023-04-10T10:43:17;19.50;73.60
50570;DHT22;36525;49.398;7.614;2023-04-10T10:46:03;19.20;72.80
50570;DHT22;36525;49.398;7.614;2023-04-10T10:48:33;19.40;75.60
50570;DHT22;36525;49.398;7.614;2023-04-10T10:51:00;19.50;75.40
50570;DHT22;36525;49.398;7.614;2023-04-10T10:53:39;19.50;75.90
50570;DHT22;36525;49.398;7.614;2023-04-10T10:56:34;19.30;74.20
50570;DHT22;36525;49.398;7.614;2023-04-10T10:59:02;18.50;74.80
50570;DHT22;36525;49.398;7.614;2023-04-10T11:01:29;17.80;72.60
50570;DHT22;36525;49.398;7.614;2023-04-10T11:03:56;17.50;73.50
50570;DHT22;36525;49.398;7.614;2023-04-10T11:06:48;17.30;75.10
50570;DHT22;36525;49.398;7.614;2023-04-10T11:09:43;17.30;76.30
50570;DHT22;36525;49.398;7.614;2023-04-10T11:12:12;17.20;72.10
50570;DHT22;36525;49.398;7.614;2023-04-10T11:14:41;16.90;70.60
50570;DHT22;36525;49.398;7.614;2023-04-10T11:17:09;16.90;70.50
50570;DHT22;36525;49.398;7.614;2023-04-10T11:19:56;17.30;71.30
50570;DHT22;36525;49.398;7.614;2023-04-10T11:22:27;17.70;72.50
50570;DHT22;36525;49.398;7.614;2023-04-10T11:24:59;17.90;74.00
50570;DHT22;36525;49.398;7.614;2023-04-10T11:27:45;18.20;70.60
50570;DHT22;36525;49.398;7.614;2023-04-10T11:30:34;18.50;73.10
50570;DHT22;36525;49.398;7.614;2023-04-10T11:33:03;18.50;69.40
50570;DHT22;36525;49.398;7.614;2023-04-10T11:35:31;18.50;73.00
50570;DHT22;36525;49.398;7.614;2023-04-10T11:38:10;18.70;74.00
50570;DHT22;36525;49.398;7.614;2023-04-10T11:40:57;18.40;71.50
50570;DHT22;36525;49.398;7.614;2023-04-10T11:43:25;18.00;73.70
50570;DHT22;36525;49.398;7.614;2023-04-10T11:46:00;18.00;73.70
50570;DHT22;36525;49.398;7.614;2023-04-10T11:48:28;18.20;72.90
50570;DHT22;36525;49.398;7.614;2023-04-10T11:50:56;17.70;70.50
50570;DHT22;36525;49.398;7.614;2023-04-10T11:53:23;17.30;71.90
50570;DHT22;36525;49.398;7.614;2023-04-10T11:55:50;16.90;72.40
50570;DHT22;36525;49.398;7.614;2023-04-10T11:58:28;17.00;75.80
50570;DHT22;36525;49.398;7.614;2023-04-10T12:01:03;17.20;74.50
50570;DHT22;36525;49.398;7.614;2023-04-10T12:03:32;17.70;76.20
50570;DHT22;36525;49.398;7.614;2023-04-10T12:06:10;18.20;73.30
50570;DHT22;36525;49.398;7.614;2023-04-10T12:08:40;18.20;73.60
50570;DHT22;36525;49.398;7.614;2023-04-10T12:11:12;17.90;74.30
50570;DHT22;36525;49.398;7.614;2023-04-10T12:13:39;18.20;75.30
50570;DHT22;36525;49.398;7.614;2023-04-10T12:16:08;18.50;74.20
50570;DHT22;36525;49.398;7.614;2023-04-10T12:18:36;18.60;73.00
50570;DHT22;36525;49.398;7.614;2023-04-10T12:21:04;17.90;70.70
50570;DHT22;36525;49.398;7.614;2023-04-10T12:23:36;17.60;70.30
50570;DHT22;36525;49.398;7.614;2023-04-10T12:26:07;17.70;71.70
50570;DHT22;36525;49.398;7.614;2023-04-10T12:28:35;17.50;71.80
50570;DHT22;36525;49.398;7.614;2023-04-10T12:31:03;17.60;76.20
50570;DHT22;36525;49.398;7.614;2023-04-10T12:33:31;17.60;73.50
50570;DHT22;36525;49.398;7.614;2023-04-10T12:35:58;17.60;72.30
50570;DHT22;36525;49.398;7.614;2023-04-10T12:38:41;17.90;72.80
50570;DHT22;36525;49.398;7.614;2023-04-10T12:41:10;17.70;72.60
50570;DHT22;36525;49.398;7.614;2023-04-10T12:43:39;17.70;71.80
50570;DHT22;36525;49.398;7.614;2023-04-10T12:46:09;17.80;72.60
50570;DHT22;36525;49.398;7.614;2023-04-10T12:48:36;17.40;71.40
50570;DHT22;36525;49.398;7.614;2023-04-10T12:51:06;17.30;74.10
50570;DHT22;36525;49.398;7.614;2023-04-10T12:53:42;17.40;73.00
50570;DHT22;36525;49.398;7.614;2023-04-10T12:56:11;17.70;72.60
50570;DHT22;36525;49.398;7.614;2023-04-10T12:58:39;18.10;73.40
50570;DHT22;36525;49.398;7.614;2023-04-10T13:01:08;18.30;73.60
50570;DHT22;36525;49.398;7.614;2023-04-10T13:03:36;18.40;72.20
50570;DHT22;36525;49.398;7.614;2023-04-10T13:06:07;18.70;73.40
50570;DHT22;36525;49.398;7.614;2023-04-10T13:08:34;18.10;70.80
50570;DHT22;36525;49.398;7.614;2023-04-10T13:11:01;18.10;70.80
50570;DHT22;36525;49.398;7.614;2023-04-10T13:13:29;17.70;70.60
50570;DHT22;36525;49.398;7.614;2023-04-10T13:15:59;17.90;71.70
50570;DHT22;36525;49.398;7.614;2023-04-10T13:18:26;17.60;71.30
50570;DHT22;36525;49.398;7.614;2023-04-10T13:20:53;17.30;70.20
50570;DHT22;36525;49.398;7.614;2023-04-10T13:23:20;17.50;72.00
50570;DHT22;36525;49.398;7.614;2023-04-10T13:25:47;17.80;71.30
50570;DHT22;36525;49.398;7.614;2023-04-10T13:28:14;17.80;70.20
50570;DHT22;36525;49.398;7.614;2023-04-10T13:30:41;17.70;71.60
50570;DHT22;36525;49.398;7.614;2023-04-10T13:33:09;17.70;72.20
50570;DHT22;36525;49.398;7.614;2023-04-10T13:35:37;17.50;71.90
50570;DHT22;36525;49.398;7.614;2023-04-10T13:38:05;17.60;70.20
50570;DHT22;36525;49.398;7.614;2023-04-10T13:40:32;18.00;71.50
50570;DHT22;36525;49.398;7.614;2023-04-10T13:42:59;18.20;70.10
50570;DHT22;36525;49.398;7.614;2023-04-10T13:45:27;18.20;71.20
50570;DHT22;36525;49.398;7.614;2023-04-10T13:47:53;18.20;72.70
50570;DHT22;36525;49.398;7.614;2023-04-10T13:50:21;18.10;73.00
50570;DHT22;36525;49.398;7.614;2023-04-10T13:52:48;18.20;74.80
50570;DHT22;36525;49.398;7.614;2023-04-10T13:55:19;18.10;74.30
50570;DHT22;36525;49.398;7.614;2023-04-10T13:57:46;18.00;72.70
50570;DHT22;36525;49.398;7.614;2023-04-10T14:00:14;17.90;74.00
50570;DHT22;36525;49.398;7.614;2023-04-10T14:02:41;17.70;73.20
50570;DHT22;36525;49.398;7.614;2023-04-10T14:05:09;18.10;74.90
50570;DHT22;36525;49.398;7.614;2023-04-10T14:07:36;18.20;74.40
50570;DHT22;36525;49.398;7.614;2023-04-10T14:10:03;18.20;75.10
50570;DHT22;36525;49.398;7.614;2023-04-10T14:12:31;17.90;74.40
50570;DHT22;36525;49.398;7.614;2023-04-10T14:15:00;17.70;75.60
50570;DHT22;36525;49.398;7.614;2023-04-10T14:17:27;17.40;76.60
50570;DHT22;36525;49.398;7.614;2023-04-10T14:19:54;17.30;77.40
50570;DHT22;36525;49.398;7.614;2023-04-10T14:22:21;17.20;77.20
50570;DHT22;36525;49.398;7.614;2023-04-10T14:24:49;17.50;77.70
50570;DHT22;36525;49.398;7.614;2023-04-10T14:27:21;17.60;77.70
50570;DHT22;36525;49.398;7.614;2023-04-10T14:29:48;17.40;78.30
50570;DHT22;36525;49.398;7.614;2023-04-10T14:32:20;17.20;78.30
50570;DHT22;36525;49.398;7.614;2023-04-10T14:34:48;16.80;78.00
50570;DHT22;36525;49.398;7.614;2023-04-10T14:37:15;16.80;80.10
50570;DHT22;36525;49.398;7.614;2023-04-10T14:39:44;16.70;79.60
50570;DHT22;36525;49.398;7.614;2023-04-10T14:42:12;16.70;79.50
50570;DHT22;36525;49.398;7.614;2023-04-10T14:44:39;17.00;80.90
50570;DHT22;36525;49.398;7.614;2023-04-10T14:47:07;17.00;79.70
50570;DHT22;36525;49.398;7.614;2023-04-10T14:49:34;17.00;79.50
50570;DHT22;36525;49.398;7.614;2023-04-10T14:52:02;16.90;79.80
50570;DHT22;36525;49.398;7.614;2023-04-10T14:54:29;16.80;80.40
50570;DHT22;36525;49.398;7.614;2023-04-10T14:56:56;17.00;81.90
50570;DHT22;36525;49.398;7.614;2023-04-10T14:59:23;17.00;80.30
50570;DHT22;36525;49.398;7.614;2023-04-10T15:01:50;16.90;81.00
50570;DHT22;36525;49.398;7.614;2023-04-10T15:04:19;16.90;81.10
50570;DHT22;36525;49.398;7.614;2023-04-10T15:06:47;16.90;81.20
50570;DHT22;36525;49.398;7.614;2023-04-10T15:09:14;16.70;82.00
50570;DHT22;36525;49.398;7.614;2023-04-10T15:11:41;16.60;82.20
50570;DHT22;36525;49.398;7.614;2023-04-10T15:14:08;16.60;82.50
50570;DHT22;36525;49.398;7.614;2023-04-10T15:16:37;16.70;82.20
50570;DHT22;36525;49.398;7.614;2023-04-10T15:19:04;16.50;82.90
50570;DHT22;36525;49.398;7.614;2023-04-10T15:21:31;16.70;82.70
50570;DHT22;36525;49.398;7.614;2023-04-10T15:24:01;16.60;83.70
50570;DHT22;36525;49.398;7.614;2023-04-10T15:26:28;16.70;84.10
50570;DHT22;36525;49.398;7.614;2023-04-10T15:28:55;16.50;83.20
50570;DHT22;36525;49.398;7.614;2023-04-10T15:31:22;16.50;83.30
50570;DHT22;36525;49.398;7.614;2023-04-10T15:33:52;16.50;84.30
50570;DHT22;36525;49.398;7.614;2023-04-10T15:36:19;16.40;84.20
50570;DHT22;36525;49.398;7.614;2023-04-10T15:38:47;16.50;85.10
50570;DHT22;36525;49.398;7.614;2023-04-10T15:41:16;16.50;84.60
50570;DHT22;36525;49.398;7.614;2023-04-10T15:43:43;16.50;85.00
50570;DHT22;36525;49.398;7.614;2023-04-10T15:46:10;16.40;85.30
50570;DHT22;36525;49.398;7.614;2023-04-10T15:48:37;16.40;86.00
50570;DHT22;36525;49.398;7.614;2023-04-10T15:51:07;16.50;85.50
50570;DHT22;36525;49.398;7.614;2023-04-10T15:53:34;16.40;85.40
50570;DHT22;36525;49.398;7.614;2023-04-10T15:56:04;16.40;85.70
50570;DHT22;36525;49.398;7.614;2023-04-10T15:58:32;16.40;85.80
50570;DHT22;36525;49.398;7.614;2023-04-10T16:01:00;16.30;85.50
50570;DHT22;36525;49.398;7.614;2023-04-10T16:03:27;16.10;86.20
50570;DHT22;36525;49.398;7.614;2023-04-10T16:05:56;16.10;87.20